createdAt,value
2022-08-22T00:06:20.392Z,98380.41
2022-08-22T00:09:29.556Z,98385.13
2022-08-22T00:12:36.849Z,98391.19
2022-08-22T00:15:44.614Z,98391.09
2022-08-22T00:18:52.358Z,98394.97
2022-08-22T00:21:59.874Z,98398.19
2022-08-22T00:25:25.494Z,98398.63
2022-08-22T00:28:32.849Z,98388.66
2022-08-22T00:31:40.825Z,98382.59
2022-08-22T00:34:48.633Z,98380.81
2022-08-22T00:38:02.549Z,98372.25
2022-08-22T00:41:08.890Z,98373.66
2022-08-22T00:44:29.268Z,98371.19
2022-08-22T00:47:46.679Z,98368.59
2022-08-22T00:51:31.349Z,98370.91
2022-08-22T00:54:48.282Z,98368.59
2022-08-22T00:58:16.549Z,98366.16
2022-08-22T01:01:24.090Z,98369.94
2022-08-22T01:04:51.099Z,98371.88
2022-08-22T01:08:08.214Z,98368.28
2022-08-22T01:11:22.817Z,98367.34
2022-08-22T01:14:36.534Z,98375.94
2022-08-22T01:17:57.508Z,98375.78
2022-08-22T01:21:24.482Z,98372.97
2022-08-22T01:25:22.454Z,98367.66
2022-08-22T01:29:09.509Z,98368.59
2022-08-22T01:32:57.158Z,98357.91
2022-08-22T01:36:11.722Z,98367.81
2022-08-22T01:39:40.406Z,98364.59
2022-08-22T01:43:09.122Z,98363.75
2022-08-22T01:46:27.117Z,98370.00
2022-08-22T01:49:39.170Z,98378.13
2022-08-22T01:52:46.247Z,98372.16
2022-08-22T01:56:02.210Z,98382.59
2022-08-22T01:59:11.078Z,98376.38
2022-08-22T02:02:29.556Z,98385.06
2022-08-22T02:05:37.350Z,98381.03
2022-08-22T02:08:45.703Z,98387.09
2022-08-22T02:11:52.229Z,98369.78
2022-08-22T02:15:09.419Z,98380.41
2022-08-22T02:18:17.120Z,98371.72
2022-08-22T02:21:23.945Z,98367.34
2022-08-22T02:24:36.040Z,98373.31
2022-08-22T02:27:47.423Z,98372.00
2022-08-22T02:30:54.266Z,98382.47
2022-08-22T02:33:58.620Z,98375.09
2022-08-22T02:37:06.809Z,98373.56
2022-08-22T02:40:18.762Z,98377.50
2022-08-22T02:43:26.024Z,98367.97
2022-08-22T02:46:31.591Z,98369.72
2022-08-22T02:49:43.800Z,98364.41
2022-08-22T02:52:56.125Z,98368.09
2022-08-22T02:56:02.059Z,98366.97
2022-08-22T02:59:16.422Z,98355.06
2022-08-22T03:02:33.136Z,98362.00
2022-08-22T03:05:51.060Z,98362.09
2022-08-22T03:09:04.660Z,98360.66
2022-08-22T03:12:10.034Z,98354.75
2022-08-22T03:15:20.013Z,98358.47
2022-08-22T03:18:26.910Z,98361.94
2022-08-22T03:21:34.872Z,98356.44
2022-08-22T03:24:42.182Z,98349.94
2022-08-22T03:27:50.678Z,98351.38
2022-08-22T03:31:01.629Z,98357.22
2022-08-22T03:34:21.444Z,98355.47
2022-08-22T03:37:27.622Z,98363.88
2022-08-22T03:40:33.649Z,98361.50
2022-08-22T03:44:00.086Z,98357.47
2022-08-22T03:47:41.602Z,98358.28
2022-08-22T03:51:31.749Z,98360.50
2022-08-22T03:54:46.125Z,98358.31
2022-08-22T03:57:58.352Z,98367.50
2022-08-22T04:01:31.342Z,98367.31
2022-08-22T04:05:16.218Z,98377.59
2022-08-22T04:08:37.139Z,98380.88
2022-08-22T04:12:15.772Z,98382.41
2022-08-22T04:15:41.907Z,98388.56
2022-08-22T04:18:54.345Z,98384.78
2022-08-22T04:22:19.181Z,98386.19
2022-08-22T04:25:26.134Z,98386.19
2022-08-22T04:28:31.449Z,98394.88
2022-08-22T04:31:36.736Z,98389.63
2022-08-22T04:34:44.139Z,98399.38
2022-08-22T04:37:51.824Z,98393.44
2022-08-22T04:41:04.257Z,98393.16
2022-08-22T04:44:13.461Z,98386.97
2022-08-22T04:47:29.396Z,98387.41
2022-08-22T04:50:43.126Z,98393.47
2022-08-22T04:54:18.348Z,98394.78
2022-08-22T04:57:27.570Z,98400.41
2022-08-22T05:00:37.263Z,98413.63
2022-08-22T05:03:44.945Z,98407.94
2022-08-22T05:06:51.861Z,98409.56
2022-08-22T05:09:57.106Z,98417.63
2022-08-22T05:13:03.771Z,98417.53
2022-08-22T05:16:11.968Z,98424.44
2022-08-22T05:19:27.107Z,98417.72
2022-08-22T05:22:38.326Z,98417.81
2022-08-22T05:25:42.883Z,98420.19
2022-08-22T05:28:50.196Z,98421.78
2022-08-22T05:31:59.960Z,98423.00
2022-08-22T05:35:03.236Z,98425.63
2022-08-22T05:38:08.992Z,98422.75
2022-08-22T05:41:17.711Z,98433.72
2022-08-22T05:44:22.783Z,98429.34
2022-08-22T05:47:29.107Z,98426.97
2022-08-22T05:50:35.811Z,98427.91
2022-08-22T05:53:42.974Z,98427.84
2022-08-22T05:56:48.828Z,98420.63
2022-08-22T05:59:57.776Z,98425.69
2022-08-22T06:03:06.504Z,98427.03
2022-08-22T06:06:12.563Z,98429.13
2022-08-22T06:09:19.835Z,98420.81
2022-08-22T06:12:27.146Z,98423.69
2022-08-22T06:15:48.122Z,98430.53
2022-08-22T06:18:51.972Z,98425.09
2022-08-22T06:21:54.719Z,98423.72
2022-08-22T06:25:04.462Z,98423.31
2022-08-22T06:28:09.812Z,98428.19
2022-08-22T06:31:17.400Z,98433.19
2022-08-22T06:34:25.666Z,98431.56
2022-08-22T06:37:33.730Z,98436.34
2022-08-22T06:40:38.034Z,98437.00
2022-08-22T06:43:43.162Z,98431.78
2022-08-22T06:46:47.816Z,98430.44
2022-08-22T06:49:52.676Z,98432.25
2022-08-22T06:52:59.657Z,98438.72
2022-08-22T06:56:05.679Z,98432.06
2022-08-22T06:59:10.711Z,98425.41
2022-08-22T07:02:22.969Z,98439.47
2022-08-22T07:05:28.767Z,98443.94
2022-08-22T07:08:38.495Z,98449.22
2022-08-22T07:11:43.626Z,98451.31
2022-08-22T07:14:49.453Z,98445.75
2022-08-22T07:17:53.676Z,98443.06
2022-08-22T07:20:59.260Z,98444.38
2022-08-22T07:24:03.551Z,98444.84
2022-08-22T07:27:15.916Z,98438.97
2022-08-22T07:30:27.660Z,98438.19
2022-08-22T07:33:42.270Z,98440.66
2022-08-22T07:36:48.782Z,98447.00
2022-08-22T07:39:54.634Z,98445.81
2022-08-22T07:43:03.460Z,98443.03
2022-08-22T07:46:19.327Z,98441.41
2022-08-22T07:49:24.999Z,98442.25
2022-08-22T07:52:31.025Z,98451.34
2022-08-22T07:55:34.151Z,98448.53
2022-08-22T07:58:49.383Z,98453.69
2022-08-22T08:01:54.444Z,98442.53
2022-08-22T08:04:58.971Z,98446.91
2022-08-22T08:08:05.320Z,98458.78
2022-08-22T08:11:10.555Z,98459.53
2022-08-22T08:14:16.621Z,98455.50
2022-08-22T08:17:23.623Z,98463.75
2022-08-22T08:20:28.085Z,98468.50
2022-08-22T08:23:39.654Z,98468.00
2022-08-22T08:27:05.293Z,98464.81
2022-08-22T08:30:15.546Z,98465.91
2022-08-22T08:33:26.285Z,98466.22
2022-08-22T08:36:37.820Z,98457.44
2022-08-22T08:39:44.583Z,98462.00
2022-08-22T08:43:15.770Z,98453.91
2022-08-22T08:46:40.574Z,98451.94
2022-08-22T08:49:58.484Z,98456.53
2022-08-22T08:53:19.747Z,98447.59
2022-08-22T08:56:30.989Z,98443.34
2022-08-22T08:59:44.230Z,98443.13
2022-08-22T09:02:57.677Z,98439.78
2022-08-22T09:06:16.751Z,98445.16
2022-08-22T09:09:29.819Z,98439.69
2022-08-22T09:12:56.010Z,98432.88
2022-08-22T09:16:14.352Z,98438.81
2022-08-22T09:19:47.200Z,98440.47
2022-08-22T09:23:20.048Z,98435.72
2022-08-22T09:26:29.224Z,98435.72
2022-08-22T09:29:51.365Z,98439.31
2022-08-22T09:33:00.918Z,98430.97
2022-08-22T09:36:12.191Z,98429.03
2022-08-22T09:39:17.575Z,98428.94
2022-08-22T09:42:24.232Z,98432.56
2022-08-22T09:45:40.003Z,98426.28
2022-08-22T09:49:06.505Z,98436.34
2022-08-22T09:52:34.052Z,98440.56
2022-08-22T09:55:42.923Z,98435.25
2022-08-22T09:58:54.158Z,98437.97
2022-08-22T10:01:59.569Z,98438.06
2022-08-22T10:05:13.742Z,98434.56
2022-08-22T10:08:41.359Z,98441.25
2022-08-22T10:11:51.398Z,98443.16
2022-08-22T10:15:06.745Z,98441.09
2022-08-22T10:18:19.629Z,98438.13
2022-08-22T10:21:28.616Z,98436.34
2022-08-22T10:24:43.952Z,98431.06
2022-08-22T10:27:56.745Z,98433.75
2022-08-22T10:31:14.872Z,98418.69
2022-08-22T10:34:21.352Z,98408.41
2022-08-22T10:37:30.963Z,98415.97
2022-08-22T10:40:39.368Z,98411.09
2022-08-22T10:43:47.445Z,98412.59
2022-08-22T10:46:54.956Z,98408.50
2022-08-22T10:50:00.637Z,98408.47
2022-08-22T10:53:28.979Z,98400.81
2022-08-22T10:56:40.647Z,98399.25
2022-08-22T10:59:48.031Z,98382.69
2022-08-22T11:02:58.471Z,98382.03
2022-08-22T11:06:02.892Z,98378.88
2022-08-22T11:09:19.264Z,98376.66
2022-08-22T11:12:34.714Z,98369.16
2022-08-22T11:16:00.144Z,98376.09
2022-08-22T11:19:23.885Z,98378.41
2022-08-22T11:22:32.179Z,98378.88
2022-08-22T11:25:44.576Z,98382.53
2022-08-22T11:29:13.149Z,98364.53
2022-08-22T11:32:25.546Z,98366.91
2022-08-22T11:35:34.224Z,98355.38
2022-08-22T11:38:40.444Z,98350.00
2022-08-22T11:41:52.255Z,98365.69
2022-08-22T11:44:59.885Z,98358.47
2022-08-22T11:48:08.976Z,98346.94
2022-08-22T11:51:16.398Z,98349.13
2022-08-22T11:54:35.317Z,98336.94
2022-08-22T11:57:44.221Z,98340.81
2022-08-22T12:00:55.345Z,98353.31
2022-08-22T12:04:05.532Z,98347.63
2022-08-22T12:07:15.682Z,98344.47
2022-08-22T12:10:21.475Z,98342.75
2022-08-22T12:13:35.558Z,98347.00
2022-08-22T12:16:47.470Z,98340.06
2022-08-22T12:20:15.124Z,98339.38
2022-08-22T12:23:49.012Z,98338.47
2022-08-22T12:26:59.684Z,98343.22
2022-08-22T12:30:14.811Z,98335.69
2022-08-22T12:33:36.819Z,98338.97
2022-08-22T12:36:58.004Z,98329.03
2022-08-22T12:40:18.147Z,98324.09
2022-08-22T12:43:42.554Z,98318.00
2022-08-22T12:46:56.785Z,98323.59
2022-08-22T12:50:14.967Z,98324.97
2022-08-22T12:53:46.185Z,98310.41
2022-08-22T12:56:55.289Z,98316.25
2022-08-22T13:00:03.548Z,98297.44
2022-08-22T13:03:10.746Z,98298.63
2022-08-22T13:06:58.107Z,98305.91
2022-08-22T13:10:04.793Z,98299.97
2022-08-22T13:13:12.144Z,98296.09
2022-08-22T13:16:18.034Z,98295.31
2022-08-22T13:19:23.995Z,98295.19
2022-08-22T13:22:29.077Z,98294.78
2022-08-22T13:25:57.671Z,98283.81
2022-08-22T13:29:24.566Z,98282.72
2022-08-22T13:32:32.605Z,98283.63
2022-08-22T13:35:45.347Z,98283.63
2022-08-22T13:38:58.384Z,98282.38
2022-08-22T13:42:14.304Z,98280.47
2022-08-22T13:45:23.108Z,98288.75
2022-08-22T13:48:28.622Z,98292.75
2022-08-22T13:51:40.081Z,98279.00
2022-08-22T13:54:55.798Z,98284.84
2022-08-22T13:58:06.764Z,98274.88
2022-08-22T14:01:25.510Z,98264.44
2022-08-22T14:04:35.993Z,98262.94
2022-08-22T14:07:42.991Z,98257.91
2022-08-22T14:10:50.535Z,98256.63
2022-08-22T14:14:00.274Z,98266.09
2022-08-22T14:17:03.771Z,98265.63
2022-08-22T14:20:11.994Z,98261.66
2022-08-22T14:23:18.256Z,98266.56
2022-08-22T14:26:32.817Z,98254.97
2022-08-22T14:29:44.233Z,98254.44
2022-08-22T14:32:51.379Z,98254.56
2022-08-22T14:35:57.101Z,98250.50
2022-08-22T14:39:05.393Z,98248.44
2022-08-22T14:42:13.276Z,98241.53
2022-08-22T14:45:19.769Z,98242.44
2022-08-22T14:48:30.872Z,98245.25
2022-08-22T14:51:34.706Z,98232.88
2022-08-22T14:54:38.850Z,98242.22
2022-08-22T14:57:48.335Z,98227.34
2022-08-22T15:00:54.035Z,98233.63
2022-08-22T15:04:04.662Z,98226.41
2022-08-22T15:07:07.938Z,98223.13
2022-08-22T15:10:20.807Z,98224.31
2022-08-22T15:13:25.757Z,98215.34
2022-08-22T15:16:37.214Z,98220.13
2022-08-22T15:19:46.888Z,98211.19
2022-08-22T15:22:51.685Z,98211.84
2022-08-22T15:25:59.089Z,98209.88
2022-08-22T15:29:08.917Z,98200.03
2022-08-22T15:32:13.006Z,98199.06
2022-08-22T15:35:29.841Z,98196.59
2022-08-22T15:38:36.501Z,98205.84
2022-08-22T15:41:42.653Z,98199.03
2022-08-22T15:44:47.949Z,98186.91
2022-08-22T15:47:54.748Z,98194.16
2022-08-22T15:51:00.221Z,98178.94
2022-08-22T15:54:24.329Z,98182.22
2022-08-22T15:57:30.237Z,98180.25
2022-08-22T16:00:36.714Z,98182.00
2022-08-22T16:03:57.391Z,98186.19
2022-08-22T16:07:01.385Z,98180.88
2022-08-22T16:10:12.806Z,98184.03
2022-08-22T16:13:35.745Z,98190.53
2022-08-22T16:16:57.475Z,98182.38
2022-08-22T16:20:33.739Z,98182.00
2022-08-22T16:24:09.585Z,98172.38
2022-08-22T16:27:22.677Z,98166.50
2022-08-22T16:30:37.371Z,98178.53
2022-08-22T16:33:41.733Z,98179.97
2022-08-22T16:36:47.588Z,98170.38
2022-08-22T16:39:52.283Z,98169.31
2022-08-22T16:43:12.870Z,98174.84
2022-08-22T16:46:28.649Z,98169.97
2022-08-22T16:49:56.576Z,98171.06
2022-08-22T16:53:02.288Z,98168.72
2022-08-22T16:56:14.724Z,98170.28
2022-08-22T16:59:44.623Z,98178.06
2022-08-22T17:02:56.494Z,98170.06
2022-08-22T17:06:06.608Z,98174.53
2022-08-22T17:09:22.097Z,98178.25
2022-08-22T17:12:32.660Z,98184.25
2022-08-22T17:15:49.593Z,98183.59
2022-08-22T17:19:06.185Z,98181.56
2022-08-22T17:22:13.834Z,98188.47
2022-08-22T17:25:22.879Z,98187.50
2022-08-22T17:28:34.420Z,98181.53
2022-08-22T17:31:46.465Z,98193.41
2022-08-22T17:34:56.981Z,98195.72
2022-08-22T17:38:06.414Z,98189.22
2022-08-22T17:41:15.834Z,98195.53
2022-08-22T17:44:23.137Z,98205.50
2022-08-22T17:47:32.670Z,98205.09
2022-08-22T17:50:41.939Z,98206.41
2022-08-22T17:53:48.273Z,98219.78
2022-08-22T17:57:05.290Z,98219.59
2022-08-22T18:00:17.034Z,98230.25
2022-08-22T18:03:24.469Z,98224.09
2022-08-22T18:06:31.290Z,98230.91
2022-08-22T18:09:39.196Z,98221.34
2022-08-22T18:12:46.470Z,98237.19
2022-08-22T18:15:52.780Z,98238.22
2022-08-22T18:19:01.755Z,98241.97
2022-08-22T18:22:09.602Z,98244.00
2022-08-22T18:25:31.646Z,98248.03
2022-08-22T18:28:40.787Z,98252.47
2022-08-22T18:31:49.277Z,98252.28
2022-08-22T18:35:02.832Z,98257.66
2022-08-22T18:38:18.268Z,98256.13
2022-08-22T18:41:29.420Z,98266.03
2022-08-22T18:44:36.442Z,98273.34
2022-08-22T18:47:39.114Z,98267.00
2022-08-22T18:50:43.214Z,98274.41
2022-08-22T18:53:49.230Z,98274.84
2022-08-22T18:56:54.669Z,98279.75
2022-08-22T19:00:11.992Z,98280.56
2022-08-22T19:03:26.989Z,98287.81
2022-08-22T19:06:47.903Z,98287.75
2022-08-22T19:10:07.364Z,98290.28
2022-08-22T19:13:35.210Z,98284.91
2022-08-22T19:17:02.057Z,98290.56
2022-08-22T19:20:27.791Z,98295.44
2022-08-22T19:23:47.563Z,98297.03
2022-08-22T19:27:30.954Z,98300.63
2022-08-22T19:30:48.646Z,98309.78
2022-08-22T19:34:16.840Z,98312.94
2022-08-22T19:37:32.134Z,98308.06
2022-08-22T19:40:54.286Z,98314.78
2022-08-22T19:43:57.150Z,98310.88
2022-08-22T19:47:05.175Z,98306.59
2022-08-22T19:50:14.697Z,98313.06
2022-08-22T19:53:33.604Z,98318.69
2022-08-22T19:56:50.516Z,98308.78
2022-08-22T20:00:00.336Z,98311.59
2022-08-22T20:03:08.336Z,98313.28
2022-08-22T20:06:42.597Z,98315.66
2022-08-22T20:09:45.483Z,98310.13
2022-08-22T20:13:01.945Z,98317.22
2022-08-22T20:16:13.444Z,98312.88
2022-08-22T20:19:21.616Z,98321.69
2022-08-22T20:22:26.547Z,98326.09
2022-08-22T20:25:43.701Z,98326.88
2022-08-22T20:28:52.336Z,98332.03
2022-08-22T20:31:58.770Z,98338.47
2022-08-22T20:35:02.949Z,98338.94
2022-08-22T20:38:07.708Z,98341.38
2022-08-22T20:41:17.427Z,98336.69
2022-08-22T20:44:30.867Z,98335.91
2022-08-22T20:47:40.877Z,98337.53
2022-08-22T20:50:45.218Z,98342.28
2022-08-22T20:53:52.311Z,98349.44
2022-08-22T20:56:58.532Z,98358.94
2022-08-22T21:00:12.223Z,98353.41
2022-08-22T21:03:22.056Z,98353.81
2022-08-22T21:06:31.665Z,98350.22
2022-08-22T21:09:52.043Z,98343.06
2022-08-22T21:13:02.821Z,98346.25
2022-08-22T21:16:15.415Z,98343.09
2022-08-22T21:19:19.834Z,98350.97
2022-08-22T21:22:28.741Z,98355.72
2022-08-22T21:25:31.863Z,98358.50
2022-08-22T21:28:35.204Z,98351.75
2022-08-22T21:31:50.110Z,98355.72
2022-08-22T21:34:53.185Z,98358.88
2022-08-22T21:37:56.904Z,98364.41
2022-08-22T21:41:05.304Z,98358.03
2022-08-22T21:44:26.579Z,98366.00
2022-08-22T21:47:33.158Z,98364.44
2022-08-22T21:50:38.344Z,98363.22
2022-08-22T21:53:40.999Z,98366.44
2022-08-22T21:56:43.679Z,98363.63
2022-08-22T21:59:51.650Z,98375.16
2022-08-22T22:03:03.060Z,98381.88
2022-08-22T22:06:06.878Z,98376.28
2022-08-22T22:09:13.259Z,98368.75
2022-08-22T22:12:18.116Z,98369.94
2022-08-22T22:15:23.318Z,98378.25
2022-08-22T22:18:31.117Z,98384.16
2022-08-22T22:21:33.814Z,98394.47
2022-08-22T22:24:36.395Z,98393.66
2022-08-22T22:27:39.057Z,98388.91
2022-08-22T22:30:42.661Z,98392.47
2022-08-22T22:33:46.634Z,98394.84
2022-08-22T22:36:49.220Z,98392.09
2022-08-22T22:39:51.780Z,98400.78
2022-08-22T22:42:54.464Z,98401.94
2022-08-22T22:45:57.111Z,98404.25
2022-08-22T22:49:01.136Z,98399.47
2022-08-22T22:52:04.240Z,98404.97
2022-08-22T22:55:08.585Z,98410.81
2022-08-22T22:58:13.520Z,98410.75
2022-08-22T23:01:20.561Z,98417.00
2022-08-22T23:04:24.556Z,98419.28
2022-08-22T23:07:28.111Z,98424.25
2022-08-22T23:10:32.468Z,98426.88
2022-08-22T23:13:36.308Z,98435.50
2022-08-22T23:16:44.442Z,98430.41
2022-08-22T23:19:48.669Z,98424.09
2022-08-22T23:22:51.432Z,98434.72
2022-08-22T23:25:54.096Z,98436.56
2022-08-22T23:28:57.339Z,98428.94
2022-08-22T23:32:00.435Z,98441.47
2022-08-22T23:35:05.370Z,98442.63
2022-08-22T23:38:08.016Z,98446.91
2022-08-22T23:41:12.111Z,98448.00
2022-08-22T23:44:16.393Z,98443.94
2022-08-22T23:47:19.018Z,98441.06
2022-08-22T23:50:23.109Z,98446.41
2022-08-22T23:53:25.868Z,98445.25
2022-08-22T23:56:30.814Z,98438.50
2022-08-22T23:59:35.680Z,98433.66
